NCAR-RAP Real-Time Weather Data

Output produced by METARs form (23 February 2020  01:07 UTC)
found at http://weather.rap.ucar.edu/surface/
 
KFSD 230056Z 23003KT 10SM CLR 03/M01 A2990 RMK AO2 SLP140 T00281011
KFSD 222356Z 25003KT 10SM CLR 04/M01 A2987 RMK AO2 SLP131 T00441011 10078 20044 52004